sensor_id;sensor_type;location;lat;lon;timestamp;P1;durP1;ratioP1;P2;durP2;ratioP2
77591;SDS011;66891;46.884;17.436;2024-02-28T00:01:34;35.80;;;17.52;;
77591;SDS011;66891;46.884;17.436;2024-02-28T00:04:01;37.53;;;18.88;;
77591;SDS011;66891;46.884;17.436;2024-02-28T00:06:28;35.93;;;16.70;;
77591;SDS011;66891;46.884;17.436;2024-02-28T00:08:55;37.75;;;17.80;;
77591;SDS011;66891;46.884;17.436;2024-02-28T00:11:22;35.35;;;17.00;;
77591;SDS011;66891;46.884;17.436;2024-02-28T00:13:49;36.28;;;18.58;;
77591;SDS011;66891;46.884;17.436;2024-02-28T00:16:17;35.67;;;17.45;;
77591;SDS011;66891;46.884;17.436;2024-02-28T00:18:45;35.80;;;17.87;;
77591;SDS011;66891;46.884;17.436;2024-02-28T00:21:12;36.38;;;17.30;;
77591;SDS011;66891;46.884;17.436;2024-02-28T00:23:39;33.95;;;17.23;;
77591;SDS011;66891;46.884;17.436;2024-02-28T00:26:06;33.90;;;16.73;;
77591;SDS011;66891;46.884;17.436;2024-02-28T00:28:33;39.20;;;17.50;;
77591;SDS011;66891;46.884;17.436;2024-02-28T00:31:00;34.43;;;16.87;;
77591;SDS011;66891;46.884;17.436;2024-02-28T00:33:27;34.10;;;16.30;;
77591;SDS011;66891;46.884;17.436;2024-02-28T00:35:56;35.15;;;15.57;;
77591;SDS011;66891;46.884;17.436;2024-02-28T00:38:22;32.22;;;16.05;;
77591;SDS011;66891;46.884;17.436;2024-02-28T00:40:49;37.28;;;17.17;;
77591;SDS011;66891;46.884;17.436;2024-02-28T00:43:16;37.07;;;18.53;;
77591;SDS011;66891;46.884;17.436;2024-02-28T00:45:46;42.00;;;20.00;;
77591;SDS011;66891;46.884;17.436;2024-02-28T00:48:13;41.90;;;20.23;;
77591;SDS011;66891;46.884;17.436;2024-02-28T00:50:40;38.85;;;18.80;;
77591;SDS011;66891;46.884;17.436;2024-02-28T00:53:08;41.40;;;19.58;;
77591;SDS011;66891;46.884;17.436;2024-02-28T00:55:36;42.87;;;20.80;;
77591;SDS011;66891;46.884;17.436;2024-02-28T00:58:03;53.42;;;24.38;;
77591;SDS011;66891;46.884;17.436;2024-02-28T01:00:30;51.20;;;22.70;;
77591;SDS011;66891;46.884;17.436;2024-02-28T01:02:57;40.45;;;19.92;;
77591;SDS011;66891;46.884;17.436;2024-02-28T01:05:24;36.72;;;17.77;;
77591;SDS011;66891;46.884;17.436;2024-02-28T01:07:51;34.97;;;17.13;;
77591;SDS011;66891;46.884;17.436;2024-02-28T01:10:19;37.22;;;17.00;;
77591;SDS011;66891;46.884;17.436;2024-02-28T01:12:46;35.75;;;17.52;;
77591;SDS011;66891;46.884;17.436;2024-02-28T01:15:13;35.22;;;16.88;;
77591;SDS011;66891;46.884;17.436;2024-02-28T01:17:41;38.60;;;15.45;;
77591;SDS011;66891;46.884;17.436;2024-02-28T01:20:08;34.73;;;16.37;;
77591;SDS011;66891;46.884;17.436;2024-02-28T01:22:35;32.38;;;15.82;;
77591;SDS011;66891;46.884;17.436;2024-02-28T01:25:02;34.35;;;16.70;;
77591;SDS011;66891;46.884;17.436;2024-02-28T01:27:31;30.70;;;15.38;;
77591;SDS011;66891;46.884;17.436;2024-02-28T01:29:58;29.98;;;15.50;;
77591;SDS011;66891;46.884;17.436;2024-02-28T01:32:25;30.10;;;14.87;;
77591;SDS011;66891;46.884;17.436;2024-02-28T01:34:52;30.58;;;14.32;;
77591;SDS011;66891;46.884;17.436;2024-02-28T01:37:19;29.67;;;15.40;;
77591;SDS011;66891;46.884;17.436;2024-02-28T01:39:46;32.92;;;14.90;;
77591;SDS011;66891;46.884;17.436;2024-02-28T01:42:13;31.60;;;14.48;;
77591;SDS011;66891;46.884;17.436;2024-02-28T01:44:44;30.97;;;14.77;;
77591;SDS011;66891;46.884;17.436;2024-02-28T01:47:11;27.83;;;14.25;;
77591;SDS011;66891;46.884;17.436;2024-02-28T01:49:38;31.13;;;15.02;;
77591;SDS011;66891;46.884;17.436;2024-02-28T01:52:06;29.13;;;14.63;;
77591;SDS011;66891;46.884;17.436;2024-02-28T01:54:33;29.23;;;13.40;;
77591;SDS011;66891;46.884;17.436;2024-02-28T01:57:01;26.73;;;13.77;;
77591;SDS011;66891;46.884;17.436;2024-02-28T01:59:28;31.42;;;15.02;;
77591;SDS011;66891;46.884;17.436;2024-02-28T02:01:57;34.00;;;15.05;;
77591;SDS011;66891;46.884;17.436;2024-02-28T02:04:25;27.90;;;14.40;;
77591;SDS011;66891;46.884;17.436;2024-02-28T02:06:52;32.22;;;15.20;;
77591;SDS011;66891;46.884;17.436;2024-02-28T02:09:21;29.13;;;13.77;;
77591;SDS011;66891;46.884;17.436;2024-02-28T02:11:48;29.13;;;15.43;;
77591;SDS011;66891;46.884;17.436;2024-02-28T02:14:17;28.70;;;14.32;;
77591;SDS011;66891;46.884;17.436;2024-02-28T02:16:44;30.15;;;14.32;;
77591;SDS011;66891;46.884;17.436;2024-02-28T02:19:12;29.13;;;14.90;;
77591;SDS011;66891;46.884;17.436;2024-02-28T02:21:41;32.63;;;14.33;;
77591;SDS011;66891;46.884;17.436;2024-02-28T02:24:09;29.75;;;13.70;;
77591;SDS011;66891;46.884;17.436;2024-02-28T02:26:36;35.22;;;17.42;;
77591;SDS011;66891;46.884;17.436;2024-02-28T02:29:03;44.20;;;22.05;;
77591;SDS011;66891;46.884;17.436;2024-02-28T02:31:30;38.25;;;19.35;;
77591;SDS011;66891;46.884;17.436;2024-02-28T02:33:57;46.43;;;26.60;;
77591;SDS011;66891;46.884;17.436;2024-02-28T02:36:24;64.53;;;37.03;;
77591;SDS011;66891;46.884;17.436;2024-02-28T02:38:51;64.97;;;35.92;;
77591;SDS011;66891;46.884;17.436;2024-02-28T02:41:19;86.53;;;48.40;;
77591;SDS011;66891;46.884;17.436;2024-02-28T02:43:46;98.43;;;56.63;;
77591;SDS011;66891;46.884;17.436;2024-02-28T02:46:13;94.47;;;52.70;;
77591;SDS011;66891;46.884;17.436;2024-02-28T02:48:42;87.68;;;48.15;;
77591;SDS011;66891;46.884;17.436;2024-02-28T02:51:09;84.68;;;46.30;;
77591;SDS011;66891;46.884;17.436;2024-02-28T02:53:36;83.70;;;49.00;;
77591;SDS011;66891;46.884;17.436;2024-02-28T02:56:03;79.35;;;43.65;;
77591;SDS011;66891;46.884;17.436;2024-02-28T02:58:32;73.33;;;42.23;;
77591;SDS011;66891;46.884;17.436;2024-02-28T03:00:59;70.82;;;38.80;;
77591;SDS011;66891;46.884;17.436;2024-02-28T03:03:26;61.88;;;32.83;;
77591;SDS011;66891;46.884;17.436;2024-02-28T03:05:53;58.63;;;31.23;;
77591;SDS011;66891;46.884;17.436;2024-02-28T03:08:20;58.08;;;31.10;;
77591;SDS011;66891;46.884;17.436;2024-02-28T03:10:47;49.73;;;26.80;;
77591;SDS011;66891;46.884;17.436;2024-02-28T03:13:14;51.08;;;27.73;;
77591;SDS011;66891;46.884;17.436;2024-02-28T03:15:42;52.15;;;27.75;;
77591;SDS011;66891;46.884;17.436;2024-02-28T03:18:09;45.17;;;24.33;;
77591;SDS011;66891;46.884;17.436;2024-02-28T03:20:37;44.90;;;22.85;;
77591;SDS011;66891;46.884;17.436;2024-02-28T03:23:05;47.13;;;23.50;;
77591;SDS011;66891;46.884;17.436;2024-02-28T03:25:35;47.15;;;24.60;;
77591;SDS011;66891;46.884;17.436;2024-02-28T03:28:02;44.35;;;24.23;;
77591;SDS011;66891;46.884;17.436;2024-02-28T03:30:29;47.97;;;24.40;;
77591;SDS011;66891;46.884;17.436;2024-02-28T03:32:58;49.33;;;25.35;;
77591;SDS011;66891;46.884;17.436;2024-02-28T03:35:25;45.93;;;23.93;;
77591;SDS011;66891;46.884;17.436;2024-02-28T03:37:52;47.35;;;23.75;;
77591;SDS011;66891;46.884;17.436;2024-02-28T03:40:19;46.35;;;24.15;;
77591;SDS011;66891;46.884;17.436;2024-02-28T03:42:45;47.35;;;22.95;;
77591;SDS011;66891;46.884;17.436;2024-02-28T03:45:13;44.13;;;23.45;;
77591;SDS011;66891;46.884;17.436;2024-02-28T03:47:40;42.77;;;21.17;;
77591;SDS011;66891;46.884;17.436;2024-02-28T03:50:09;43.25;;;21.30;;
77591;SDS011;66891;46.884;17.436;2024-02-28T03:52:36;45.80;;;21.05;;
77591;SDS011;66891;46.884;17.436;2024-02-28T03:55:03;41.30;;;21.38;;
77591;SDS011;66891;46.884;17.436;2024-02-28T03:57:30;43.13;;;20.88;;
77591;SDS011;66891;46.884;17.436;2024-02-28T03:59:57;43.50;;;20.53;;
77591;SDS011;66891;46.884;17.436;2024-02-28T04:02:24;39.50;;;20.25;;
77591;SDS011;66891;46.884;17.436;2024-02-28T04:04:52;40.10;;;19.58;;
77591;SDS011;66891;46.884;17.436;2024-02-28T04:07:20;39.20;;;19.17;;
77591;SDS011;66891;46.884;17.436;2024-02-28T04:09:48;38.50;;;19.00;;
77591;SDS011;66891;46.884;17.436;2024-02-28T04:12:15;39.63;;;18.27;;
77591;SDS011;66891;46.884;17.436;2024-02-28T04:14:43;40.95;;;19.67;;
77591;SDS011;66891;46.884;17.436;2024-02-28T04:17:09;39.45;;;19.17;;
77591;SDS011;66891;46.884;17.436;2024-02-28T04:19:36;37.63;;;18.80;;
77591;SDS011;66891;46.884;17.436;2024-02-28T04:22:04;34.53;;;17.27;;
77591;SDS011;66891;46.884;17.436;2024-02-28T04:24:32;37.53;;;17.13;;
77591;SDS011;66891;46.884;17.436;2024-02-28T04:27:00;37.00;;;17.73;;
77591;SDS011;66891;46.884;17.436;2024-02-28T04:29:27;37.95;;;17.75;;
77591;SDS011;66891;46.884;17.436;2024-02-28T04:31:53;32.85;;;15.77;;
77591;SDS011;66891;46.884;17.436;2024-02-28T04:34:20;34.58;;;17.35;;
77591;SDS011;66891;46.884;17.436;2024-02-28T04:36:48;32.23;;;15.07;;
77591;SDS011;66891;46.884;17.436;2024-02-28T04:39:15;35.20;;;15.32;;
77591;SDS011;66891;46.884;17.436;2024-02-28T04:41:43;32.45;;;15.70;;
77591;SDS011;66891;46.884;17.436;2024-02-28T04:44:10;32.50;;;16.02;;
77591;SDS011;66891;46.884;17.436;2024-02-28T04:46:37;31.20;;;14.75;;
77591;SDS011;66891;46.884;17.436;2024-02-28T04:49:04;34.87;;;15.23;;
77591;SDS011;66891;46.884;17.436;2024-02-28T04:51:33;33.38;;;15.05;;
77591;SDS011;66891;46.884;17.436;2024-02-28T04:54:00;33.15;;;14.27;;
77591;SDS011;66891;46.884;17.436;2024-02-28T04:56:27;34.67;;;15.65;;
77591;SDS011;66891;46.884;17.436;2024-02-28T04:58:55;33.33;;;15.68;;
77591;SDS011;66891;46.884;17.436;2024-02-28T05:01:22;33.83;;;16.83;;
77591;SDS011;66891;46.884;17.436;2024-02-28T05:03:49;32.65;;;15.20;;
77591;SDS011;66891;46.884;17.436;2024-02-28T05:06:16;34.17;;;15.85;;
77591;SDS011;66891;46.884;17.436;2024-02-28T05:08:43;30.42;;;14.85;;
77591;SDS011;66891;46.884;17.436;2024-02-28T05:11:10;33.28;;;16.17;;
77591;SDS011;66891;46.884;17.436;2024-02-28T05:13:37;34.17;;;15.67;;
77591;SDS011;66891;46.884;17.436;2024-02-28T05:16:11;39.75;;;17.17;;
77591;SDS011;66891;46.884;17.436;2024-02-28T05:18:38;38.38;;;17.50;;
77591;SDS011;66891;46.884;17.436;2024-02-28T05:21:05;34.33;;;16.58;;
77591;SDS011;66891;46.884;17.436;2024-02-28T05:23:32;38.95;;;17.02;;
77591;SDS011;66891;46.884;17.436;2024-02-28T05:25:59;39.97;;;19.23;;
77591;SDS011;66891;46.884;17.436;2024-02-28T05:28:30;39.08;;;19.88;;
77591;SDS011;66891;46.884;17.436;2024-02-28T05:30:58;40.17;;;19.40;;
77591;SDS011;66891;46.884;17.436;2024-02-28T05:33:27;40.53;;;20.15;;
77591;SDS011;66891;46.884;17.436;2024-02-28T05:35:54;35.22;;;18.67;;
77591;SDS011;66891;46.884;17.436;2024-02-28T05:38:23;38.07;;;19.23;;
77591;SDS011;66891;46.884;17.436;2024-02-28T05:40:49;38.45;;;18.38;;
77591;SDS011;66891;46.884;17.436;2024-02-28T05:43:16;40.55;;;20.02;;
77591;SDS011;66891;46.884;17.436;2024-02-28T05:45:43;42.58;;;20.27;;
77591;SDS011;66891;46.884;17.436;2024-02-28T05:48:10;42.50;;;20.80;;
77591;SDS011;66891;46.884;17.436;2024-02-28T05:50:39;39.97;;;19.47;;
77591;SDS011;66891;46.884;17.436;2024-02-28T05:53:06;40.50;;;19.65;;
77591;SDS011;66891;46.884;17.436;2024-02-28T05:55:33;37.53;;;18.08;;
77591;SDS011;66891;46.884;17.436;2024-02-28T05:58:00;36.72;;;17.95;;
77591;SDS011;66891;46.884;17.436;2024-02-28T06:00:28;34.53;;;16.80;;
77591;SDS011;66891;46.884;17.436;2024-02-28T06:02:55;35.87;;;16.50;;
77591;SDS011;66891;46.884;17.436;2024-02-28T06:05:21;36.58;;;16.92;;
77591;SDS011;66891;46.884;17.436;2024-02-28T06:07:50;35.42;;;18.42;;
77591;SDS011;66891;46.884;17.436;2024-02-28T06:10:17;37.17;;;18.48;;
77591;SDS011;66891;46.884;17.436;2024-02-28T06:12:44;43.30;;;20.13;;
77591;SDS011;66891;46.884;17.436;2024-02-28T06:15:12;39.97;;;18.87;;
77591;SDS011;66891;46.884;17.436;2024-02-28T06:17:39;42.58;;;19.77;;
77591;SDS011;66891;46.884;17.436;2024-02-28T06:20:06;39.55;;;19.63;;
77591;SDS011;66891;46.884;17.436;2024-02-28T06:22:33;38.42;;;19.15;;
77591;SDS011;66891;46.884;17.436;2024-02-28T06:25:02;38.67;;;19.58;;
77591;SDS011;66891;46.884;17.436;2024-02-28T06:27:29;46.10;;;22.07;;
77591;SDS011;66891;46.884;17.436;2024-02-28T06:29:56;45.95;;;22.88;;
77591;SDS011;66891;46.884;17.436;2024-02-28T06:32:23;51.58;;;25.30;;
77591;SDS011;66891;46.884;17.436;2024-02-28T06:34:50;44.65;;;22.23;;
77591;SDS011;66891;46.884;17.436;2024-02-28T06:37:22;41.00;;;21.27;;
77591;SDS011;66891;46.884;17.436;2024-02-28T06:39:50;42.00;;;20.47;;
77591;SDS011;66891;46.884;17.436;2024-02-28T06:42:18;37.80;;;18.90;;
77591;SDS011;66891;46.884;17.436;2024-02-28T06:44:45;43.15;;;22.02;;
77591;SDS011;66891;46.884;17.436;2024-02-28T06:47:12;42.92;;;22.65;;
77591;SDS011;66891;46.884;17.436;2024-02-28T06:49:39;49.15;;;25.38;;
77591;SDS011;66891;46.884;17.436;2024-02-28T06:52:06;44.17;;;21.37;;
77591;SDS011;66891;46.884;17.436;2024-02-28T06:54:33;39.63;;;19.88;;
77591;SDS011;66891;46.884;17.436;2024-02-28T06:57:01;38.28;;;18.63;;
77591;SDS011;66891;46.884;17.436;2024-02-28T06:59:30;41.00;;;20.65;;
77591;SDS011;66891;46.884;17.436;2024-02-28T07:01:58;42.83;;;23.08;;
77591;SDS011;66891;46.884;17.436;2024-02-28T07:04:25;43.80;;;23.83;;
77591;SDS011;66891;46.884;17.436;2024-02-28T07:06:52;53.45;;;25.15;;
77591;SDS011;66891;46.884;17.436;2024-02-28T07:09:19;60.97;;;28.45;;
77591;SDS011;66891;46.884;17.436;2024-02-28T07:11:47;69.00;;;32.53;;
77591;SDS011;66891;46.884;17.436;2024-02-28T07:14:15;63.80;;;30.58;;
77591;SDS011;66891;46.884;17.436;2024-02-28T07:16:46;56.53;;;28.07;;
77591;SDS011;66891;46.884;17.436;2024-02-28T07:19:13;70.35;;;31.08;;
77591;SDS011;66891;46.884;17.436;2024-02-28T07:21:40;76.38;;;33.42;;
77591;SDS011;66891;46.884;17.436;2024-02-28T07:24:07;61.70;;;27.75;;
77591;SDS011;66891;46.884;17.436;2024-02-28T07:26:34;65.20;;;34.22;;
77591;SDS011;66891;46.884;17.436;2024-02-28T07:29:01;70.70;;;38.33;;
77591;SDS011;66891;46.884;17.436;2024-02-28T07:31:28;73.93;;;37.10;;
77591;SDS011;66891;46.884;17.436;2024-02-28T07:33:57;67.55;;;36.85;;
77591;SDS011;66891;46.884;17.436;2024-02-28T07:36:24;70.05;;;36.90;;
77591;SDS011;66891;46.884;17.436;2024-02-28T07:38:51;69.35;;;35.55;;
77591;SDS011;66891;46.884;17.436;2024-02-28T07:41:19;62.13;;;33.80;;
77591;SDS011;66891;46.884;17.436;2024-02-28T07:43:47;58.08;;;30.92;;
77591;SDS011;66891;46.884;17.436;2024-02-28T07:46:21;55.38;;;29.15;;
77591;SDS011;66891;46.884;17.436;2024-02-28T07:48:48;57.03;;;29.42;;
77591;SDS011;66891;46.884;17.436;2024-02-28T07:51:17;64.20;;;31.70;;
77591;SDS011;66891;46.884;17.436;2024-02-28T07:53:44;59.10;;;31.40;;
77591;SDS011;66891;46.884;17.436;2024-02-28T07:56:15;43.50;;;22.92;;
77591;SDS011;66891;46.884;17.436;2024-02-28T07:58:42;35.75;;;18.90;;
77591;SDS011;66891;46.884;17.436;2024-02-28T08:01:10;34.70;;;16.92;;
77591;SDS011;66891;46.884;17.436;2024-02-28T08:03:37;34.45;;;16.75;;
77591;SDS011;66891;46.884;17.436;2024-02-28T08:06:04;33.47;;;16.80;;
77591;SDS011;66891;46.884;17.436;2024-02-28T08:08:33;43.97;;;20.73;;
77591;SDS011;66891;46.884;17.436;2024-02-28T08:11:00;43.08;;;20.50;;
77591;SDS011;66891;46.884;17.436;2024-02-28T08:13:27;45.40;;;20.20;;
77591;SDS011;66891;46.884;17.436;2024-02-28T08:15:55;39.88;;;19.52;;
77591;SDS011;66891;46.884;17.436;2024-02-28T08:18:22;37.77;;;18.20;;
77591;SDS011;66891;46.884;17.436;2024-02-28T08:20:49;37.53;;;17.80;;
77591;SDS011;66891;46.884;17.436;2024-02-28T08:23:18;37.63;;;18.70;;
77591;SDS011;66891;46.884;17.436;2024-02-28T08:25:46;37.13;;;17.75;;
77591;SDS011;66891;46.884;17.436;2024-02-28T08:28:13;34.30;;;17.88;;
77591;SDS011;66891;46.884;17.436;2024-02-28T08:30:46;35.53;;;17.83;;
77591;SDS011;66891;46.884;17.436;2024-02-28T08:33:13;34.72;;;18.27;;
77591;SDS011;66891;46.884;17.436;2024-02-28T08:35:41;34.58;;;17.73;;
77591;SDS011;66891;46.884;17.436;2024-02-28T08:38:13;34.72;;;18.55;;
77591;SDS011;66891;46.884;17.436;2024-02-28T08:40:41;34.85;;;17.55;;
77591;SDS011;66891;46.884;17.436;2024-02-28T08:43:13;35.00;;;16.40;;
77591;SDS011;66891;46.884;17.436;2024-02-28T08:45:40;33.92;;;17.30;;
77591;SDS011;66891;46.884;17.436;2024-02-28T08:48:07;36.72;;;18.52;;
77591;SDS011;66891;46.884;17.436;2024-02-28T08:50:37;35.95;;;18.80;;
77591;SDS011;66891;46.884;17.436;2024-02-28T08:53:04;35.42;;;19.25;;
77591;SDS011;66891;46.884;17.436;2024-02-28T08:55:31;37.57;;;18.93;;
77591;SDS011;66891;46.884;17.436;2024-02-28T08:57:58;34.55;;;18.42;;
77591;SDS011;66891;46.884;17.436;2024-02-28T09:00:27;38.13;;;18.88;;
77591;SDS011;66891;46.884;17.436;2024-02-28T09:02:54;39.58;;;18.85;;
77591;SDS011;66891;46.884;17.436;2024-02-28T09:05:21;39.92;;;19.73;;
77591;SDS011;66891;46.884;17.436;2024-02-28T09:07:48;37.23;;;19.27;;
77591;SDS011;66891;46.884;17.436;2024-02-28T09:10:18;35.13;;;18.25;;
77591;SDS011;66891;46.884;17.436;2024-02-28T09:12:51;37.05;;;17.88;;
77591;SDS011;66891;46.884;17.436;2024-02-28T09:15:19;33.28;;;16.40;;
77591;SDS011;66891;46.884;17.436;2024-02-28T09:17:48;29.77;;;15.43;;
77591;SDS011;66891;46.884;17.436;2024-02-28T09:20:15;29.57;;;15.80;;
77591;SDS011;66891;46.884;17.436;2024-02-28T09:22:42;35.22;;;16.25;;
77591;SDS011;66891;46.884;17.436;2024-02-28T09:25:09;34.40;;;17.00;;
77591;SDS011;66891;46.884;17.436;2024-02-28T09:27:36;31.98;;;17.10;;
77591;SDS011;66891;46.884;17.436;2024-02-28T09:30:04;32.42;;;16.13;;
77591;SDS011;66891;46.884;17.436;2024-02-28T09:32:32;31.93;;;15.00;;
77591;SDS011;66891;46.884;17.436;2024-02-28T09:35:01;33.70;;;16.08;;
77591;SDS011;66891;46.884;17.436;2024-02-28T09:37:28;33.67;;;16.30;;
77591;SDS011;66891;46.884;17.436;2024-02-28T09:39:55;30.60;;;16.17;;
77591;SDS011;66891;46.884;17.436;2024-02-28T09:42:23;34.22;;;16.52;;
77591;SDS011;66891;46.884;17.436;2024-02-28T09:44:50;30.97;;;15.17;;
77591;SDS011;66891;46.884;17.436;2024-02-28T09:47:17;30.95;;;15.30;;
77591;SDS011;66891;46.884;17.436;2024-02-28T09:49:44;31.58;;;16.83;;
77591;SDS011;66891;46.884;17.436;2024-02-28T09:52:13;35.17;;;17.25;;
77591;SDS011;66891;46.884;17.436;2024-02-28T09:54:42;37.75;;;17.38;;
77591;SDS011;66891;46.884;17.436;2024-02-28T09:57:14;31.33;;;16.63;;
77591;SDS011;66891;46.884;17.436;2024-02-28T09:59:42;33.47;;;16.70;;
77591;SDS011;66891;46.884;17.436;2024-02-28T10:02:20;37.05;;;17.52;;
77591;SDS011;66891;46.884;17.436;2024-02-28T10:04:48;36.55;;;17.50;;
77591;SDS011;66891;46.884;17.436;2024-02-28T10:07:16;35.15;;;17.63;;
77591;SDS011;66891;46.884;17.436;2024-02-28T10:09:43;34.60;;;17.47;;
77591;SDS011;66891;46.884;17.436;2024-02-28T10:12:10;34.03;;;17.90;;
77591;SDS011;66891;46.884;17.436;2024-02-28T10:14:37;37.42;;;18.55;;
77591;SDS011;66891;46.884;17.436;2024-02-28T10:17:06;35.28;;;18.98;;
77591;SDS011;66891;46.884;17.436;2024-02-28T10:19:37;38.97;;;19.60;;
77591;SDS011;66891;46.884;17.436;2024-02-28T10:22:08;37.70;;;19.70;;
77591;SDS011;66891;46.884;17.436;2024-02-28T10:24:37;36.25;;;19.80;;
77591;SDS011;66891;46.884;17.436;2024-02-28T10:27:04;35.45;;;19.42;;
77591;SDS011;66891;46.884;17.436;2024-02-28T10:29:32;34.85;;;18.88;;
77591;SDS011;66891;46.884;17.436;2024-02-28T10:32:02;35.53;;;19.65;;
77591;SDS011;66891;46.884;17.436;2024-02-28T10:34:32;35.90;;;17.87;;
77591;SDS011;66891;46.884;17.436;2024-02-28T10:37:08;35.50;;;19.10;;
77591;SDS011;66891;46.884;17.436;2024-02-28T10:39:35;32.50;;;17.40;;
77591;SDS011;66891;46.884;17.436;2024-02-28T10:42:05;33.53;;;16.65;;
77591;SDS011;66891;46.884;17.436;2024-02-28T10:44:32;32.60;;;17.30;;
77591;SDS011;66891;46.884;17.436;2024-02-28T10:47:01;32.00;;;17.17;;
77591;SDS011;66891;46.884;17.436;2024-02-28T10:49:29;32.30;;;16.20;;
77591;SDS011;66891;46.884;17.436;2024-02-28T10:51:57;30.50;;;17.00;;
77591;SDS011;66891;46.884;17.436;2024-02-28T10:54:28;26.60;;;14.43;;
77591;SDS011;66891;46.884;17.436;2024-02-28T10:56:57;32.33;;;15.75;;
77591;SDS011;66891;46.884;17.436;2024-02-28T10:59:27;32.13;;;16.33;;
77591;SDS011;66891;46.884;17.436;2024-02-28T11:01:54;32.15;;;17.35;;
77591;SDS011;66891;46.884;17.436;2024-02-28T11:04:23;31.65;;;16.67;;
77591;SDS011;66891;46.884;17.436;2024-02-28T11:06:53;32.40;;;16.02;;
77591;SDS011;66891;46.884;17.436;2024-02-28T11:09:23;30.65;;;16.95;;
77591;SDS011;66891;46.884;17.436;2024-02-28T11:11:54;26.07;;;15.47;;
77591;SDS011;66891;46.884;17.436;2024-02-28T11:14:23;28.13;;;15.30;;
77591;SDS011;66891;46.884;17.436;2024-02-28T11:17:03;30.17;;;14.75;;
77591;SDS011;66891;46.884;17.436;2024-02-28T11:19:32;29.33;;;14.90;;
77591;SDS011;66891;46.884;17.436;2024-02-28T11:22:02;28.08;;;13.98;;
77591;SDS011;66891;46.884;17.436;2024-02-28T11:24:32;23.13;;;12.60;;
77591;SDS011;66891;46.884;17.436;2024-02-28T11:26:59;28.40;;;14.57;;
77591;SDS011;66891;46.884;17.436;2024-02-28T11:29:27;28.17;;;14.27;;
77591;SDS011;66891;46.884;17.436;2024-02-28T11:31:56;27.60;;;14.07;;
77591;SDS011;66891;46.884;17.436;2024-02-28T11:34:24;24.13;;;13.73;;
77591;SDS011;66891;46.884;17.436;2024-02-28T11:36:51;24.67;;;13.47;;
77591;SDS011;66891;46.884;17.436;2024-02-28T11:39:20;22.63;;;12.38;;
77591;SDS011;66891;46.884;17.436;2024-02-28T11:41:52;23.35;;;12.57;;
77591;SDS011;66891;46.884;17.436;2024-02-28T11:44:19;25.60;;;13.30;;
77591;SDS011;66891;46.884;17.436;2024-02-28T11:46:47;23.73;;;12.88;;
77591;SDS011;66891;46.884;17.436;2024-02-28T11:49:14;25.03;;;13.40;;
77591;SDS011;66891;46.884;17.436;2024-02-28T11:51:45;25.60;;;14.07;;
77591;SDS011;66891;46.884;17.436;2024-02-28T11:54:15;25.27;;;13.90;;
77591;SDS011;66891;46.884;17.436;2024-02-28T11:56:42;29.52;;;15.27;;
77591;SDS011;66891;46.884;17.436;2024-02-28T11:59:10;25.10;;;12.82;;
77591;SDS011;66891;46.884;17.436;2024-02-28T12:01:38;22.07;;;13.27;;
77591;SDS011;66891;46.884;17.436;2024-02-28T12:04:06;22.67;;;12.13;;
77591;SDS011;66891;46.884;17.436;2024-02-28T12:06:33;24.27;;;12.95;;
77591;SDS011;66891;46.884;17.436;2024-02-28T12:09:02;24.50;;;13.15;;
77591;SDS011;66891;46.884;17.436;2024-02-28T12:11:30;26.83;;;14.10;;
77591;SDS011;66891;46.884;17.436;2024-02-28T12:13:57;26.17;;;14.67;;
77591;SDS011;66891;46.884;17.436;2024-02-28T12:16:25;25.23;;;12.98;;
77591;SDS011;66891;46.884;17.436;2024-02-28T12:18:52;23.92;;;13.02;;
77591;SDS011;66891;46.884;17.436;2024-02-28T12:21:19;24.88;;;14.32;;
77591;SDS011;66891;46.884;17.436;2024-02-28T12:23:47;29.23;;;14.85;;
77591;SDS011;66891;46.884;17.436;2024-02-28T12:26:19;24.97;;;12.87;;
77591;SDS011;66891;46.884;17.436;2024-02-28T12:28:46;27.67;;;13.57;;
77591;SDS011;66891;46.884;17.436;2024-02-28T12:31:14;24.23;;;13.23;;
77591;SDS011;66891;46.884;17.436;2024-02-28T12:33:41;26.48;;;13.32;;
77591;SDS011;66891;46.884;17.436;2024-02-28T12:36:09;25.27;;;12.90;;
77591;SDS011;66891;46.884;17.436;2024-02-28T12:38:36;24.40;;;12.93;;
77591;SDS011;66891;46.884;17.436;2024-02-28T12:41:03;23.10;;;12.00;;
77591;SDS011;66891;46.884;17.436;2024-02-28T12:43:32;21.73;;;10.82;;
77591;SDS011;66891;46.884;17.436;2024-02-28T12:46:00;23.30;;;10.63;;
77591;SDS011;66891;46.884;17.436;2024-02-28T12:48:27;19.90;;;9.40;;
77591;SDS011;66891;46.884;17.436;2024-02-28T12:50:54;18.63;;;8.27;;
77591;SDS011;66891;46.884;17.436;2024-02-28T12:53:21;16.60;;;8.60;;
77591;SDS011;66891;46.884;17.436;2024-02-28T12:55:48;17.50;;;9.30;;
77591;SDS011;66891;46.884;17.436;2024-02-28T12:58:15;21.02;;;10.02;;
77591;SDS011;66891;46.884;17.436;2024-02-28T13:00:50;16.73;;;7.55;;
77591;SDS011;66891;46.884;17.436;2024-02-28T13:03:17;16.73;;;8.30;;
77591;SDS011;66891;46.884;17.436;2024-02-28T13:05:45;20.77;;;8.50;;
77591;SDS011;66891;46.884;17.436;2024-02-28T13:08:12;17.05;;;9.20;;
77591;SDS011;66891;46.884;17.436;2024-02-28T13:10:39;17.08;;;7.60;;
77591;SDS011;66891;46.884;17.436;2024-02-28T13:13:09;17.83;;;7.88;;
77591;SDS011;66891;46.884;17.436;2024-02-28T13:15:36;13.00;;;5.50;;
77591;SDS011;66891;46.884;17.436;2024-02-28T13:18:04;14.50;;;3.38;;
77591;SDS011;66891;46.884;17.436;2024-02-28T13:20:36;18.95;;;5.60;;
77591;SDS011;66891;46.884;17.436;2024-02-28T13:23:05;14.40;;;5.57;;
77591;SDS011;66891;46.884;17.436;2024-02-28T13:25:33;20.75;;;4.53;;
77591;SDS011;66891;46.884;17.436;2024-02-28T13:28:00;14.77;;;4.63;;
77591;SDS011;66891;46.884;17.436;2024-02-28T13:30:27;15.48;;;4.22;;
77591;SDS011;66891;46.884;17.436;2024-02-28T13:32:54;17.42;;;1.60;;
77591;SDS011;66891;46.884;17.436;2024-02-28T13:35:22;15.43;;;3.80;;
77591;SDS011;66891;46.884;17.436;2024-02-28T13:37:49;13.60;;;4.65;;
77591;SDS011;66891;46.884;17.436;2024-02-28T13:40:16;15.87;;;4.73;;
77591;SDS011;66891;46.884;17.436;2024-02-28T13:42:44;18.88;;;5.35;;
77591;SDS011;66891;46.884;17.436;2024-02-28T13:45:12;20.17;;;7.10;;
77591;SDS011;66891;46.884;17.436;2024-02-28T13:47:39;15.38;;;4.85;;
77591;SDS011;66891;46.884;17.436;2024-02-28T13:50:06;15.75;;;3.58;;
77591;SDS011;66891;46.884;17.436;2024-02-28T13:52:35;15.43;;;3.70;;
77591;SDS011;66891;46.884;17.436;2024-02-28T13:55:04;14.25;;;4.35;;
77591;SDS011;66891;46.884;17.436;2024-02-28T13:57:32;18.35;;;4.20;;
77591;SDS011;66891;46.884;17.436;2024-02-28T13:59:59;16.92;;;3.90;;
77591;SDS011;66891;46.884;17.436;2024-02-28T14:02:28;22.60;;;5.68;;
77591;SDS011;66891;46.884;17.436;2024-02-28T14:04:55;16.93;;;5.50;;
77591;SDS011;66891;46.884;17.436;2024-02-28T14:07:22;13.27;;;5.68;;
77591;SDS011;66891;46.884;17.436;2024-02-28T14:09:50;13.52;;;5.45;;
77591;SDS011;66891;46.884;17.436;2024-02-28T14:12:18;14.82;;;5.20;;
77591;SDS011;66891;46.884;17.436;2024-02-28T14:14:44;16.27;;;6.18;;